Lakeline, Ohio
Current Conditions -  °F | °C
As of 1:45 PM on Saturday 25 Oct 2014 (Local Time) from KCGF Reporting Station
Broken Clouds Broken Clouds  
Wind Chill: 68°   Ceiling: 5000
Heat Index: 68°   Visibility: 10mi
Dew Point: 55°   Wind: 17mph
Humidity: 64%   Direction: 280°W
Pressure: 29.78"   Gusts: 25mph
Location:  41.6454°N, 81.4495°W
Report Text: KCGF 251745Z 28015G22KT 10SM BKN050 20/13 A2978
Loading
Personal Weather Stations






























Interactive Weather Map
Tropical Storm Tracking
New forecast layout! Learn more

10-Day Weather Forecast

Advertisements
Track Severe Weather on mobile